Time;durP1;ratioP1;P1;durP2;ratioP2;P2;SDS_P1;SDS_P2;PMS_P1;PMS_P2;Temp;Humidity;BMP_temperature;BMP_pressure;BME280_temperature;BME280_humidity;BME280_pressure;Samples;Min_cycle;Max_cycle;Signal;HPM_P1;HPM_P2
2022/09/28 00:01:54;;;;;;;6.63;5.60;;;8.20;99.90;;;;;;4803459;29;20057;-67
2022/09/28 00:04:20;;;;;;;8.38;6.05;;;8.20;99.90;;;;;;4788284;29;20461;-67
2022/09/28 00:06:46;;;;;;;8.43;5.50;;;8.20;99.90;;;;;;4780183;29;20354;-67
2022/09/28 00:09:12;;;;;;;6.13;5.45;;;8.20;99.90;;;;;;4793492;29;20046;-67
2022/09/28 00:11:38;;;;;;;7.38;5.85;;;8.10;99.90;;;;;;4804009;29;20389;-67
2022/09/28 00:14:06;;;;;;;8.45;6.13;;;8.20;99.90;;;;;;4788702;29;20130;-67
2022/09/28 00:16:42;;;;;;;10.45;5.63;;;8.10;99.90;;;;;;4804255;29;20511;-67
2022/09/28 00:19:09;;;;;;;7.28;5.82;;;8.20;99.90;;;;;;4773680;29;20138;-67
2022/09/28 00:21:37;;;;;;;11.02;6.55;;;8.20;99.90;;;;;;4804135;29;20108;-67
2022/09/28 00:24:14;;;;;;;7.10;6.25;;;8.20;99.90;;;;;;4788560;29;20120;-68
2022/09/28 00:26:52;;;;;;;11.10;6.70;;;8.20;99.90;;;;;;4804983;29;20047;-67
2022/09/28 00:29:22;;;;;;;8.93;7.07;;;8.20;99.90;;;;;;4803222;29;20188;-68
2022/09/28 00:31:51;;;;;;;7.47;6.32;;;8.20;99.90;;;;;;4805121;29;20058;-66
2022/09/28 00:34:16;;;;;;;9.18;6.53;;;8.20;99.90;;;;;;4802461;29;20118;-67
2022/09/28 00:36:44;;;;;;;9.82;7.28;;;8.20;99.90;;;;;;4803872;29;20158;-67
2022/09/28 00:39:11;;;;;;;9.20;6.72;;;8.20;99.90;;;;;;4803741;29;20182;-67
2022/09/28 00:41:37;;;;;;;9.88;7.32;;;8.20;99.90;;;;;;4804834;29;20050;-66
2022/09/28 00:44:24;;;;;;;7.63;6.57;;;8.20;99.90;;;;;;4803791;29;20384;-67
2022/09/28 00:47:00;;;;;;;11.40;6.97;;;8.20;99.90;;;;;;4804490;29;20054;-67
2022/09/28 00:49:54;;;;;;;9.63;7.03;;;8.20;99.90;;;;;;4787539;29;20051;-67
2022/09/28 00:52:28;;;;;;;11.80;7.78;;;8.20;99.90;;;;;;4750567;29;20050;-67
2022/09/28 00:54:57;;;;;;;10.23;8.00;;;8.20;99.90;;;;;;4803724;29;20064;-68
2022/09/28 00:57:23;;;;;;;10.57;7.90;;;8.20;99.90;;;;;;4803232;29;20047;-68
2022/09/28 00:59:50;;;;;;;9.52;7.72;;;8.20;99.90;;;;;;4787141;29;20362;-67
2022/09/28 01:02:15;;;;;;;10.52;8.40;;;8.20;99.90;;;;;;4803216;29;20046;-67
2022/09/28 01:04:41;;;;;;;12.30;8.40;;;8.20;99.90;;;;;;4787824;29;20055;-67
2022/09/28 01:07:08;;;;;;;10.73;8.60;;;8.20;99.90;;;;;;4788291;29;20050;-67
2022/09/28 01:09:37;;;;;;;11.75;8.40;;;8.20;99.90;;;;;;4786469;29;20043;-67
2022/09/28 01:12:03;;;;;;;9.20;8.20;;;8.20;99.90;;;;;;4788016;29;20537;-67
2022/09/28 01:14:29;;;;;;;13.13;9.13;;;8.20;99.90;;;;;;4788681;29;20121;-67
2022/09/28 01:17:12;;;;;;;10.18;8.63;;;8.30;99.90;;;;;;4804558;29;20114;-66
2022/09/28 01:20:02;;;;;;;;;;;8.30;99.90;;;;;;4805542;29;20076;-67
2022/09/28 01:22:56;;;;;;;10.18;7.82;;;8.30;99.90;;;;;;4806150;29;20341;-67
2022/09/28 01:25:53;;;;;;;10.10;7.85;;;8.30;99.90;;;;;;4800883;29;20108;-67
2022/09/28 01:28:30;;;;;;;10.15;7.90;;;8.30;99.90;;;;;;4804180;29;20184;-67
2022/09/28 01:31:10;;;;;;;9.65;7.90;;;8.30;99.90;;;;;;4790292;29;20125;-67
2022/09/28 01:33:51;;;;;;;10.15;7.35;;;8.10;99.90;;;;;;4791610;29;20126;-66
2022/09/28 01:36:40;;;;;;;9.00;7.90;;;8.20;99.90;;;;;;4776134;29;20132;-67
2022/09/28 01:39:14;;;;;;;12.98;9.02;;;8.20;99.90;;;;;;4790550;29;20154;-67
2022/09/28 01:41:41;;;;;;;10.45;7.13;;;8.10;99.90;;;;;;4807447;29;20055;-67
2022/09/28 01:44:13;;;;;;;12.05;8.93;;;8.10;99.90;;;;;;4789537;29;20162;-67
2022/09/28 01:46:43;;;;;;;8.93;7.05;;;8.00;99.90;;;;;;4787166;29;20059;-67
2022/09/28 01:49:37;;;;;;;9.23;7.47;;;8.00;99.90;;;;;;4807496;29;20126;-67
2022/09/28 01:52:39;;;;;;;14.35;9.55;;;7.90;99.90;;;;;;4770264;30;20055;-67
2022/09/28 01:55:23;;;;;;;11.63;8.70;;;7.90;99.90;;;;;;4789557;29;20058;-67
2022/09/28 01:58:09;;;;;;;14.95;8.75;;;7.90;99.90;;;;;;4807416;29;20042;-67
2022/09/28 02:00:40;;;;;;;11.10;8.93;;;7.80;99.90;;;;;;4807235;29;20061;-67
2022/09/28 02:03:12;;;;;;;10.90;8.50;;;8.10;99.90;;;;;;4806428;29;20568;-67
2022/09/28 02:05:48;;;;;;;10.95;7.93;;;7.80;99.90;;;;;;4807246;29;20046;-67
2022/09/28 02:08:25;;;;;;;9.82;7.90;;;7.80;99.90;;;;;;4806681;29;20086;-67
2022/09/28 02:11:03;;;;;;;9.25;7.78;;;7.80;99.90;;;;;;4805326;29;20496;-68
2022/09/28 02:13:34;;;;;;;13.50;9.00;;;7.90;99.90;;;;;;4807188;29;20057;-67
2022/09/28 02:16:15;;;;;;;14.40;9.35;;;7.90;99.90;;;;;;4806734;29;20553;-68
2022/09/28 02:18:41;;;;;;;12.10;9.68;;;7.90;99.90;;;;;;4806454;29;20042;-68
2022/09/28 02:21:21;;;;;;;11.80;9.63;;;7.90;99.90;;;;;;4806269;29;20056;-67
2022/09/28 02:23:55;;;;;;;14.07;9.63;;;8.00;99.90;;;;;;4806338;29;20053;-68
2022/09/28 02:26:29;;;;;;;12.73;9.45;;;8.00;99.90;;;;;;4805888;29;20050;-67
2022/09/28 02:28:54;;;;;;;13.32;9.40;;;8.10;99.90;;;;;;4806163;29;20039;-67
2022/09/28 02:31:20;;;;;;;14.27;10.02;;;8.10;99.90;;;;;;4775154;29;20550;-68
2022/09/28 02:33:49;;;;;;;13.52;10.20;;;8.00;99.90;;;;;;4790468;29;20053;-68
2022/09/28 02:36:15;;;;;;;13.57;9.38;;;8.00;99.90;;;;;;4805533;29;20050;-68
2022/09/28 02:38:41;;;;;;;15.20;10.50;;;8.10;99.90;;;;;;4804553;29;20053;-68
2022/09/28 02:41:38;;;;;;;14.93;10.60;;;8.10;99.90;;;;;;4805502;29;20145;-68
2022/09/28 02:44:25;;;;;;;15.68;11.85;;;8.10;99.90;;;;;;4804965;29;20051;-68
2022/09/28 02:47:02;;;;;;;15.07;11.30;;;8.00;99.90;;;;;;4806435;29;20561;-68
2022/09/28 02:49:36;;;;;;;17.35;12.30;;;8.10;99.90;;;;;;4805923;29;20111;-67
2022/09/28 02:52:11;;;;;;;16.77;11.65;;;8.10;99.90;;;;;;4774106;29;20078;-68
2022/09/28 02:54:45;;;;;;;13.00;10.13;;;8.10;99.90;;;;;;4804863;29;20473;-68
2022/09/28 02:57:42;;;;;;;13.52;9.75;;;8.10;99.90;;;;;;4806669;29;20480;-67
2022/09/28 03:00:13;;;;;;;13.50;11.07;;;8.10;99.90;;;;;;4805018;29;20490;-68
2022/09/28 03:02:49;;;;;;;19.98;12.00;;;8.10;99.90;;;;;;4789752;29;20152;-67
2022/09/28 03:05:21;;;;;;;18.35;13.00;;;8.20;99.90;;;;;;4775559;29;20495;-68
2022/09/28 03:08:03;;;;;;;22.80;14.03;;;8.20;99.90;;;;;;4806369;29;20368;-68
2022/09/28 03:10:48;;;;;;;21.83;14.98;;;8.20;99.90;;;;;;4806101;29;20121;-68
2022/09/28 03:13:15;;;;;;;24.30;14.13;;;8.10;99.90;;;;;;4789314;29;20081;-68
2022/09/28 03:15:41;;;;;;;21.05;15.00;;;8.10;99.90;;;;;;4805312;29;20477;-68
2022/09/28 03:18:07;;;;;;;20.75;14.63;;;8.00;99.90;;;;;;4805459;29;20071;-68
2022/09/28 03:20:33;;;;;;;29.10;16.10;;;8.00;99.90;;;;;;4805670;29;20046;-68
2022/09/28 03:22:59;;;;;;;29.05;17.90;;;8.00;99.90;;;;;;4805637;29;20046;-68
2022/09/28 03:25:25;;;;;;;29.45;17.38;;;7.90;99.90;;;;;;4789251;29;20107;-68
2022/09/28 03:27:51;;;;;;;34.45;17.80;;;8.00;99.90;;;;;;4805347;29;20532;-68
2022/09/28 03:30:17;;;;;;;27.08;16.00;;;7.90;99.90;;;;;;4804746;29;20346;-68
2022/09/28 03:32:42;;;;;;;31.60;17.55;;;8.00;99.90;;;;;;4797239;29;20050;-68
2022/09/28 03:35:09;;;;;;;30.75;17.85;;;8.00;99.90;;;;;;4788413;29;20111;-68
2022/09/28 03:37:35;;;;;;;27.65;16.33;;;8.00;99.90;;;;;;4805045;29;20046;-68
2022/09/28 03:40:00;;;;;;;38.67;17.58;;;8.00;99.90;;;;;;4773151;30;20125;-68
2022/09/28 03:42:26;;;;;;;40.45;17.70;;;8.00;99.90;;;;;;4799915;29;20177;-67
2022/09/28 03:44:52;;;;;;;39.50;16.45;;;8.10;99.90;;;;;;4787952;29;20137;-68
2022/09/28 03:47:18;;;;;;;41.35;17.42;;;7.60;99.90;;;;;;4788607;29;20108;-68
2022/09/28 03:49:45;;;;;;;27.95;15.18;;;8.00;99.90;;;;;;4782851;29;20046;-68
2022/09/28 03:52:14;;;;;;;89.63;20.85;;;7.90;99.90;;;;;;4790090;29;20080;-67
2022/09/28 03:54:40;;;;;;;69.32;20.13;;;7.90;99.90;;;;;;4804912;29;20051;-67
2022/09/28 03:57:06;;;;;;;68.18;19.10;;;7.90;99.90;;;;;;4804709;29;20129;-67
2022/09/28 03:59:31;;;;;;;101.15;20.92;;;7.90;99.90;;;;;;4789236;29;20121;-67
2022/09/28 04:01:57;;;;;;;57.58;17.45;;;7.90;99.90;;;;;;4788221;29;20079;-68
2022/09/28 04:04:22;;;;;;;65.03;17.92;;;7.90;99.90;;;;;;4803522;29;20039;-68
2022/09/28 04:06:48;;;;;;;67.00;19.00;;;7.90;99.90;;;;;;4805511;29;20465;-68
2022/09/28 04:09:15;;;;;;;80.82;19.85;;;7.90;99.90;;;;;;4804711;29;20051;-68
2022/09/28 04:12:05;;;;;;;93.35;20.10;;;7.90;99.90;;;;;;4805550;29;20504;-68
2022/09/28 04:14:31;;;;;;;72.65;19.80;;;7.90;99.90;;;;;;4804802;29;20411;-68
2022/09/28 04:16:57;;;;;;;49.67;18.15;;;7.90;99.90;;;;;;4803668;29;20062;-68
2022/09/28 04:19:22;;;;;;;67.22;19.77;;;7.90;99.90;;;;;;4803960;29;20047;-68
2022/09/28 04:21:51;;;;;;;44.20;17.02;;;7.90;99.90;;;;;;4805654;29;20108;-68
2022/09/28 04:24:19;;;;;;;94.18;20.42;;;7.90;99.90;;;;;;4804767;29;20047;-68
2022/09/28 04:26:48;;;;;;;42.80;15.25;;;7.90;99.90;;;;;;4788786;29;20129;-68
2022/09/28 04:29:18;;;;;;;71.78;19.23;;;7.90;99.90;;;;;;4771848;29;20054;-68
2022/09/28 04:32:10;;;;;;;75.63;18.00;;;7.90;99.90;;;;;;4772756;29;20042;-67
2022/09/28 04:35:01;;;;;;;56.35;16.95;;;7.90;99.90;;;;;;4782856;29;20131;-69
2022/09/28 04:37:30;;;;;;;96.15;19.55;;;7.80;99.90;;;;;;4789480;29;20457;-68
2022/09/28 04:39:56;;;;;;;87.47;19.92;;;7.80;99.90;;;;;;4787120;29;20067;-68
2022/09/28 04:42:21;;;;;;;117.97;22.15;;;7.80;99.90;;;;;;4774206;29;20104;-68
2022/09/28 04:44:47;;;;;;;63.28;17.13;;;7.80;99.90;;;;;;4788533;29;20499;-67
2022/09/28 04:47:12;;;;;;;56.05;18.23;;;7.80;99.90;;;;;;4804610;29;20043;-68
2022/09/28 04:49:38;;;;;;;133.10;20.13;;;7.90;99.90;;;;;;4788973;29;20059;-68
2022/09/28 04:52:04;;;;;;;87.38;17.48;;;7.80;99.90;;;;;;4804867;29;20047;-68
2022/09/28 04:54:30;;;;;;;100.88;17.83;;;7.80;99.90;;;;;;4787403;29;20066;-68
2022/09/28 04:56:56;;;;;;;72.15;16.48;;;7.80;99.90;;;;;;4805407;29;20050;-68
2022/09/28 04:59:22;;;;;;;108.10;19.08;;;7.80;99.90;;;;;;4807414;29;20046;-68
2022/09/28 05:01:48;;;;;;;68.50;17.58;;;7.80;99.90;;;;;;4808093;29;20376;-68
2022/09/28 05:04:13;;;;;;;187.48;20.90;;;7.80;99.90;;;;;;4789638;29;20153;-68
2022/09/28 05:06:39;;;;;;;100.65;16.05;;;7.70;99.90;;;;;;4805451;29;20134;-68
2022/09/28 05:09:05;;;;;;;174.93;20.42;;;7.70;99.90;;;;;;4804983;29;20122;-68
2022/09/28 05:11:31;;;;;;;232.00;26.23;;;7.70;99.90;;;;;;4807811;29;20085;-68
2022/09/28 05:13:56;;;;;;;279.65;27.27;;;7.70;99.90;;;;;;4788195;29;20074;-68
2022/09/28 05:16:23;;;;;;;136.95;17.98;;;7.70;99.90;;;;;;4782862;29;20111;-67
2022/09/28 05:18:54;;;;;;;73.90;16.08;;;7.60;99.90;;;;;;4790837;29;20055;-68
2022/09/28 05:21:19;;;;;;;103.47;17.02;;;7.60;99.90;;;;;;4806469;29;20062;-68
2022/09/28 05:23:47;;;;;;;258.77;28.20;;;7.60;99.90;;;;;;4808083;29;20126;-68
2022/09/28 05:26:13;;;;;;;128.18;16.98;;;7.60;99.90;;;;;;4791998;29;20049;-68
2022/09/28 05:28:39;;;;;;;190.35;22.40;;;7.60;99.90;;;;;;4807060;29;20046;-67
2022/09/28 05:31:05;;;;;;;163.27;21.35;;;7.60;99.90;;;;;;4791260;29;20043;-68
2022/09/28 05:33:31;;;;;;;129.90;18.45;;;7.60;99.90;;;;;;4789355;29;20108;-67
2022/09/28 05:35:58;;;;;;;161.45;20.45;;;7.60;99.90;;;;;;4789628;29;20078;-67
2022/09/28 05:38:23;;;;;;;225.02;25.58;;;7.60;99.90;;;;;;4807354;29;20451;-67
2022/09/28 05:40:50;;;;;;;191.70;24.05;;;7.60;99.90;;;;;;4791859;29;20149;-67
2022/09/28 05:43:15;;;;;;;112.57;17.13;;;7.70;99.90;;;;;;4806418;29;20081;-68
2022/09/28 05:45:41;;;;;;;140.00;18.73;;;7.60;99.90;;;;;;4808201;29;20434;-68
2022/09/28 05:48:07;;;;;;;66.38;15.45;;;7.70;99.90;;;;;;4802886;29;20051;-68
2022/09/28 05:50:33;;;;;;;193.65;24.13;;;7.70;99.90;;;;;;4796441;29;20031;-67
2022/09/28 05:53:01;;;;;;;164.73;21.38;;;7.70;99.90;;;;;;4804453;29;20077;-67
2022/09/28 05:55:30;;;;;;;143.15;19.88;;;7.70;99.90;;;;;;4803395;29;20410;-67
2022/09/28 05:57:58;;;;;;;131.32;18.83;;;7.70;99.90;;;;;;4798146;29;20101;-67
2022/09/28 06:00:26;;;;;;;157.23;19.10;;;7.60;99.90;;;;;;4800527;29;20055;-67
2022/09/28 06:03:02;;;;;;;187.90;23.02;;;7.60;99.90;;;;;;4802715;29;20170;-67
2022/09/28 06:05:31;;;;;;;175.10;21.90;;;7.60;99.90;;;;;;4773200;29;20047;-68
2022/09/28 06:08:03;;;;;;;95.45;16.05;;;7.60;99.90;;;;;;4805471;29;20054;-68
2022/09/28 06:14:14;;;;;;;95.65;15.10;;;7.60;99.90;;;;;;4804059;29;20301;-68
2022/09/28 06:16:41;;;;;;;73.95;12.95;;;7.70;99.90;;;;;;4803039;29;20107;-67
2022/09/28 06:19:10;;;;;;;163.63;19.52;;;7.60;99.90;;;;;;4790856;29;20051;-67
2022/09/28 06:21:37;;;;;;;113.28;16.00;;;7.60;99.90;;;;;;4775327;29;20048;-67
2022/09/28 06:24:03;;;;;;;89.70;15.40;;;7.60;99.90;;;;;;4806791;29;20519;-67
2022/09/28 06:26:29;;;;;;;165.43;21.63;;;7.60;99.90;;;;;;4789895;29;20051;-67
2022/09/28 06:28:55;;;;;;;78.43;13.93;;;7.70;99.90;;;;;;4805496;29;20158;-67
2022/09/28 06:31:46;;;;;;;36.50;13.57;;;7.70;99.90;;;;;;4786788;29;20042;-67
2022/09/28 06:34:12;;;;;;;75.18;14.77;;;7.70;99.90;;;;;;4790533;29;20488;-67
2022/09/28 06:36:38;;;;;;;89.78;16.23;;;7.70;99.90;;;;;;4789588;29;20056;-68
2022/09/28 06:39:05;;;;;;;97.50;16.65;;;7.70;99.90;;;;;;4804611;29;20481;-68
2022/09/28 06:41:30;;;;;;;69.22;15.60;;;7.80;99.90;;;;;;4805835;29;20046;-68
2022/09/28 06:43:56;;;;;;;60.90;15.55;;;7.80;99.90;;;;;;4806566;29;20107;-67
2022/09/28 06:46:22;;;;;;;72.18;17.50;;;7.80;99.90;;;;;;4807137;29;20370;-67
2022/09/28 06:48:48;;;;;;;50.10;15.07;;;7.80;99.90;;;;;;4805688;29;20153;-67
2022/09/28 06:51:15;;;;;;;66.25;17.05;;;7.90;99.90;;;;;;4789760;29;20062;-68
2022/09/28 06:53:40;;;;;;;51.40;15.57;;;8.00;99.90;;;;;;4805996;29;20050;-67
2022/09/28 06:56:09;;;;;;;72.88;16.92;;;8.00;99.90;;;;;;4805579;29;20043;-67
2022/09/28 06:58:36;;;;;;;42.67;14.52;;;8.00;99.90;;;;;;4806846;29;20058;-68
2022/09/28 07:01:02;;;;;;;41.55;14.07;;;8.10;99.90;;;;;;4790760;29;20051;-67
2022/09/28 07:03:28;;;;;;;52.05;14.52;;;8.20;99.90;;;;;;4790274;29;20046;-67
2022/09/28 07:05:55;;;;;;;35.15;14.52;;;8.20;99.90;;;;;;4790601;29;20394;-68
2022/09/28 07:08:23;;;;;;;31.02;12.95;;;8.20;99.90;;;;;;4789700;29;20047;-67
2022/09/28 07:10:54;;;;;;;46.58;15.60;;;8.20;99.90;;;;;;4805134;29;20043;-67
2022/09/28 07:13:24;;;;;;;45.57;15.27;;;8.20;99.90;;;;;;4787328;29;20047;-67
2022/09/28 07:16:03;;;;;;;34.63;14.55;;;8.30;99.90;;;;;;4790124;29;20446;-68
2022/09/28 07:18:29;;;;;;;35.08;14.55;;;8.40;99.90;;;;;;4789114;29;20049;-68
2022/09/28 07:20:58;;;;;;;29.45;13.23;;;8.40;99.90;;;;;;4804949;29;20043;-68
2022/09/28 07:23:28;;;;;;;54.63;16.52;;;8.40;99.90;;;;;;4771808;29;20039;-67
2022/09/28 07:25:54;;;;;;;43.72;15.15;;;8.80;99.90;;;;;;4804628;29;20038;-68
2022/09/28 07:28:20;;;;;;;28.33;14.45;;;8.50;99.90;;;;;;4787374;29;20182;-68
2022/09/28 07:30:47;;;;;;;30.48;14.02;;;8.50;99.90;;;;;;4785148;29;20071;-69
2022/09/28 07:33:14;;;;;;;44.70;14.63;;;8.50;99.90;;;;;;4795230;29;20515;-68
2022/09/28 07:35:41;;;;;;;67.28;15.50;;;8.50;99.90;;;;;;4804076;29;20085;-68
2022/09/28 07:46:11;;;;;;;39.75;12.05;;;8.80;99.90;;;;;;5344539;23;20043;-69
2022/09/28 07:48:41;;;;;;;29.02;11.85;;;8.80;99.90;;;;;;4803786;29;20146;-69
2022/09/28 07:51:08;;;;;;;16.15;10.93;;;8.90;99.90;;;;;;4803654;29;20061;-67
2022/09/28 07:53:34;;;;;;;26.58;11.32;;;9.00;99.90;;;;;;4804348;29;20358;-67
2022/09/28 07:56:25;;;;;;;17.20;10.95;;;9.00;99.90;;;;;;4787265;29;20073;-67
2022/09/28 07:59:45;;;;;;;23.55;11.50;;;9.00;99.90;;;;;;4803992;29;20059;-68
2022/09/28 08:02:12;;;;;;;15.70;10.00;;;8.90;99.90;;;;;;4804160;29;20078;-67
2022/09/28 08:05:02;;;;;;;12.85;9.55;;;8.90;99.90;;;;;;4804484;29;20046;-67
2022/09/28 08:07:28;;;;;;;13.35;9.80;;;8.90;99.90;;;;;;4788609;29;20050;-68
2022/09/28 08:09:57;;;;;;;13.18;9.95;;;9.00;99.90;;;;;;4787005;29;20058;-68
2022/09/28 08:12:23;;;;;;;14.60;9.70;;;9.00;99.90;;;;;;4801924;29;20053;-68
2022/09/28 08:14:51;;;;;;;12.32;9.15;;;9.10;99.90;;;;;;4769933;29;20059;-68
2022/09/28 08:17:17;;;;;;;13.02;10.00;;;9.10;99.90;;;;;;4786513;29;20066;-68
2022/09/28 08:22:53;;;;;;;14.32;10.48;;;9.10;99.90;;;;;;4803927;29;20062;-68
2022/09/28 08:25:19;;;;;;;12.27;9.10;;;9.10;99.90;;;;;;4778430;29;20469;-67
2022/09/28 08:27:45;;;;;;;12.50;9.57;;;9.10;99.90;;;;;;4791516;29;20392;-68
2022/09/28 08:30:11;;;;;;;13.13;9.52;;;9.10;99.90;;;;;;4806377;29;20042;-67
2022/09/28 08:32:36;;;;;;;13.60;10.15;;;9.20;99.90;;;;;;4807944;29;20125;-68
2022/09/28 08:35:02;;;;;;;13.40;9.73;;;9.20;99.90;;;;;;4795136;29;20188;-68
2022/09/28 08:37:28;;;;;;;13.52;10.45;;;9.30;99.90;;;;;;4774505;29;20130;-67
2022/09/28 08:39:53;;;;;;;15.25;10.93;;;9.40;99.90;;;;;;4805973;29;20134;-68
2022/09/28 08:42:40;;;;;;;12.57;9.82;;;9.50;99.90;;;;;;4807401;29;20058;-68
2022/09/28 08:45:13;;;;;;;15.35;10.80;;;9.50;99.90;;;;;;4806298;29;20082;-69
2022/09/28 08:50:29;;;;;;;13.93;10.63;;;9.90;99.90;;;;;;4807182;29;20038;-67
2022/09/28 08:53:02;;;;;;;15.00;10.18;;;10.20;99.90;;;;;;4791910;29;20051;-69
2022/09/28 08:55:36;;;;;;;14.65;10.30;;;10.40;99.90;;;;;;4792183;29;20114;-68
2022/09/28 08:58:14;;;;;;;17.60;11.20;;;10.70;99.90;;;;;;4806794;29;20043;-68
2022/09/28 09:00:44;;;;;;;14.07;10.75;;;10.90;99.90;;;;;;4805524;29;20070;-68
2022/09/28 09:03:15;;;;;;;14.70;11.60;;;11.00;99.90;;;;;;4789629;29;20508;-69
2022/09/28 09:10:39;;;;;;;13.43;9.90;;;11.20;99.90;;;;;;4809716;29;20146;-76
2022/09/28 09:13:44;;;;;;;12.80;9.70;;;11.70;99.90;;;;;;4793820;29;20057;-75
2022/09/28 09:27:43;;;;;;;;;;;;;;;;;;;;;
2022/09/28 09:31:25;;;;;;;12.48;10.00;;;11.80;99.90;;;;;;4748377;30;20570;-75
2022/09/28 09:34:31;;;;;;;12.63;9.25;;;11.90;99.90;;;;;;4746259;30;20129;-73
2022/09/28 09:37:16;;;;;;;13.07;9.65;;;12.00;99.90;;;;;;4805533;29;20499;-73
2022/09/28 09:40:16;;;;;;;13.32;9.45;;;12.20;99.90;;;;;;4790948;29;20111;-75
2022/09/28 09:43:06;;;;;;;11.77;9.30;;;12.30;99.90;;;;;;4789466;29;20539;-72
2022/09/28 09:50:01;;;;;;;13.30;9.45;;;12.40;99.90;;;;;;4708090;30;20060;-73
2022/09/28 09:52:46;;;;;;;11.95;9.55;;;12.60;99.90;;;;;;4687466;30;20045;-74
2022/09/28 09:55:39;;;;;;;13.07;9.18;;;12.70;99.90;;;;;;4717399;30;20101;-73
2022/09/28 09:58:38;;;;;;;12.13;8.80;;;12.90;99.90;;;;;;4793103;29;20056;-73
2022/09/28 10:01:32;;;;;;;10.88;8.38;;;13.00;99.90;;;;;;4786642;29;20119;-73
2022/09/28 10:04:00;;;;;;;13.45;9.77;;;13.10;99.90;;;;;;4790461;29;20385;-73
2022/09/28 10:13:48;;;;;;;7.68;5.90;;;13.10;99.90;;;;;;4759861;29;20075;-76
2022/09/28 10:16:19;;;;;;;6.38;5.35;;;13.60;99.90;;;;;;4791031;29;20567;-74
2022/09/28 10:19:19;;;;;;;6.45;4.18;;;13.00;99.90;;;;;;4776135;29;20130;-75
2022/09/28 10:22:39;;;;;;;4.07;3.63;;;12.50;99.90;;;;;;4790456;29;20067;-75
2022/09/28 10:25:32;;;;;;;3.85;3.20;;;13.00;99.90;;;;;;4804194;29;20053;-74
2022/09/28 10:28:00;;;;;;;3.63;3.30;;;12.80;99.90;;;;;;4789511;29;20515;-77
2022/09/28 10:34:13;;;;;;;5.57;3.38;;;13.50;99.90;;;;;;4792632;29;20043;-73
2022/09/28 10:37:09;;;;;;;4.38;2.95;;;14.20;99.90;;;;;;4804558;29;20419;-72
2022/09/28 10:40:29;;;;;;;4.03;2.80;;;13.80;99.90;;;;;;4774200;29;20038;-74
2022/09/28 10:43:46;;;;;;;3.30;2.80;;;13.90;99.90;;;;;;4791810;29;20156;-74
2022/09/28 10:57:27;;;;;;;2.35;2.10;;;13.90;99.90;;;;;;4805826;29;20046;-74
2022/09/28 11:00:39;;;;;;;2.20;2.00;;;14.00;99.90;;;;;;4798760;29;20680;-73
2022/09/28 11:06:50;;;;;;;2.60;2.00;;;13.80;99.90;;;;;;4790427;29;20055;-74
2022/09/28 11:22:41;;;;;;;2.20;1.67;;;14.00;99.90;;;;;;4747556;30;20051;-73
2022/09/28 11:25:31;;;;;;;3.55;1.80;;;14.20;99.90;;;;;;4746158;30;20462;-73
2022/09/28 11:32:17;;;;;;;2.38;1.58;;;14.20;99.90;;;;;;4762593;30;20148;-73
2022/09/28 11:35:29;;;;;;;;;;;;;;;;;;;;;
2022/09/28 11:38:47;;;;;;;1.60;1.40;;;14.50;99.90;;;;;;4765411;30;20047;-75
2022/09/28 11:41:22;;;;;;;2.08;1.48;;;14.90;99.90;;;;;;4735445;30;20086;-76
2022/09/28 11:48:02;;;;;;;3.17;1.60;;;14.80;99.90;;;;;;4765158;30;20055;-73
2022/09/28 11:51:08;;;;;;;1.85;1.65;;;14.70;99.90;;;;;;4750789;30;20056;-75
2022/09/28 11:54:02;;;;;;;1.80;1.70;;;14.70;99.90;;;;;;4762413;30;20055;-74
2022/09/28 11:59:37;;;;;;;2.45;1.60;;;14.70;99.90;;;;;;5076580;27;1250750;-67
2022/09/28 12:02:20;;;;;;;1.30;1.20;;;14.60;99.90;;;;;;5114623;28;20052;-67
2022/09/28 12:05:14;;;;;;;1.80;1.10;;;14.60;99.90;;;;;;5114089;28;20138;-68
2022/09/28 12:07:45;;;;;;;1.90;1.38;;;14.50;99.90;;;;;;5097780;28;20737;-66
2022/09/28 12:10:18;;;;;;;1.80;1.05;;;14.60;99.90;;;;;;5100676;28;20048;-67
2022/09/28 12:12:50;;;;;;;1.33;1.20;;;14.80;99.90;;;;;;5093350;28;20055;-67
2022/09/28 12:15:27;;;;;;;1.42;1.05;;;14.80;99.90;;;;;;5114846;28;20040;-67
2022/09/28 12:18:01;;;;;;;1.88;1.20;;;14.80;99.90;;;;;;5101532;28;20048;-67
2022/09/28 12:20:34;;;;;;;3.28;1.30;;;14.90;99.90;;;;;;5104191;28;20464;-67
2022/09/28 12:23:02;;;;;;;1.88;1.00;;;14.80;99.90;;;;;;5091151;28;20428;-67
2022/09/28 12:25:35;;;;;;;2.15;1.08;;;14.80;99.90;;;;;;5111162;28;20403;-67
2022/09/28 12:28:28;;;;;;;1.23;0.90;;;14.80;99.90;;;;;;5093296;28;20100;-67
2022/09/28 12:30:56;;;;;;;1.17;0.90;;;14.80;99.90;;;;;;5098837;28;20491;-67
2022/09/28 12:33:22;;;;;;;0.80;0.80;;;14.90;99.90;;;;;;5114317;28;20518;-67
2022/09/28 12:36:00;;;;;;;2.08;0.70;;;14.80;99.90;;;;;;5096157;28;20052;-67
2022/09/28 12:38:26;;;;;;;1.23;0.80;;;14.90;99.90;;;;;;5106004;28;20170;-67
2022/09/28 12:41:05;;;;;;;0.80;0.80;;;15.10;99.90;;;;;;5107587;28;20139;-66
2022/09/28 12:44:17;;;;;;;0.73;0.73;;;15.10;99.90;;;;;;5085798;28;20048;-66
2022/09/28 12:46:52;;;;;;;1.58;0.80;;;15.20;99.90;;;;;;5038879;28;20467;-67
2022/09/28 12:49:26;;;;;;;0.98;0.70;;;15.10;99.90;;;;;;5106049;28;20043;-67
2022/09/28 12:51:59;;;;;;;1.73;0.70;;;15.20;99.90;;;;;;5104656;28;20551;-67
2022/09/28 12:55:04;;;;;;;0.55;0.55;;;15.30;99.90;;;;;;5107530;28;20118;-68
2022/09/28 12:58:02;;;;;;;1.88;0.90;;;15.30;99.90;;;;;;5090909;28;20044;-67
2022/09/28 13:01:03;;;;;;;0.77;0.77;;;15.40;99.90;;;;;;5074161;28;20051;-67
2022/09/28 13:03:48;;;;;;;0.68;0.57;;;15.50;99.90;;;;;;5083445;28;20094;-67
2022/09/28 13:06:36;;;;;;;1.13;0.68;;;15.70;99.90;;;;;;5093030;28;20048;-67
2022/09/28 13:09:19;;;;;;;0.50;0.40;;;15.80;99.90;;;;;;5086486;28;20099;-68
2022/09/28 13:12:02;;;;;;;0.82;0.60;;;15.80;99.90;;;;;;5075219;28;20048;-68
2022/09/28 13:14:48;;;;;;;1.65;0.63;;;15.80;99.90;;;;;;5057465;28;20381;-68
2022/09/28 13:17:48;;;;;;;1.00;0.60;;;15.90;99.90;;;;;;5077085;28;20476;-66
2022/09/28 13:20:36;;;;;;;0.45;0.43;;;15.90;99.90;;;;;;5081990;28;20368;-68
2022/09/28 13:23:28;;;;;;;0.60;0.60;;;16.10;99.90;;;;;;5084743;28;20111;-68
2022/09/28 13:25:56;;;;;;;1.70;0.80;;;16.20;99.90;;;;;;5067872;28;20073;-68
2022/09/28 13:28:24;;;;;;;0.98;0.60;;;16.30;99.90;;;;;;5094048;28;20072;-68
2022/09/28 13:30:52;;;;;;;0.50;0.40;;;16.30;99.90;;;;;;5095514;28;20052;-68
2022/09/28 13:33:34;;;;;;;0.63;0.50;;;16.40;99.90;;;;;;5095136;28;20044;-68
2022/09/28 13:36:02;;;;;;;1.13;0.60;;;16.40;99.90;;;;;;5060717;28;20048;-68
2022/09/28 13:38:46;;;;;;;1.27;0.70;;;16.50;99.90;;;;;;5058858;28;20059;-68
2022/09/28 13:41:15;;;;;;;1.77;0.65;;;16.60;99.90;;;;;;5054418;28;20132;-68
2022/09/28 13:43:56;;;;;;;1.42;0.60;;;16.70;99.90;;;;;;5074846;28;20068;-68
2022/09/28 13:46:59;;;;;;;1.33;0.47;;;16.70;99.90;;;;;;5086640;28;20052;-68
2022/09/28 13:49:49;;;;;;;1.10;0.40;;;16.50;99.90;;;;;;5077131;28;20479;-68
2022/09/28 13:52:53;;;;;;;1.27;0.70;;;16.30;99.90;;;;;;5088960;28;20044;-68
2022/09/28 13:55:31;;;;;;;1.48;1.17;;;16.10;99.90;;;;;;5056363;28;20070;-67
2022/09/28 13:58:12;;;;;;;1.10;0.50;;;15.90;99.90;;;;;;5056374;28;20107;-68
2022/09/28 14:00:52;;;;;;;0.60;0.43;;;15.60;99.90;;;;;;5039963;28;20040;-68
2022/09/28 14:03:41;;;;;;;0.50;0.28;;;15.20;99.90;;;;;;5074687;28;20090;-67
2022/09/28 14:06:19;;;;;;;0.55;0.38;;;14.70;99.90;;;;;;5075254;28;20055;-68
2022/09/28 14:08:57;;;;;;;8.82;0.85;;;14.40;99.90;;;;;;5075148;28;20075;-69
2022/09/28 14:11:35;;;;;;;2.05;0.73;;;14.10;99.90;;;;;;5074227;28;20463;-68
2022/09/28 14:14:07;;;;;;;2.42;0.60;;;13.80;99.90;;;;;;5056537;28;20060;-68
2022/09/28 14:16:37;;;;;;;1.55;0.32;;;13.60;99.90;;;;;;5056965;28;20368;-67
2022/09/28 14:19:15;;;;;;;0.70;0.50;;;13.40;99.90;;;;;;5074130;28;20052;-69
2022/09/28 14:22:05;;;;;;;1.85;1.00;;;13.20;99.90;;;;;;5082148;28;20114;-69
2022/09/28 14:24:37;;;;;;;9.25;6.20;;;13.00;99.90;;;;;;5058520;28;20056;-68
2022/09/28 14:27:14;;;;;;;9.10;7.20;;;12.90;99.90;;;;;;5056018;28;20060;-68
2022/09/28 14:29:40;;;;;;;6.35;4.85;;;12.90;99.90;;;;;;5074700;28;20138;-68
2022/09/28 14:32:08;;;;;;;8.43;7.63;;;12.80;99.90;;;;;;5074127;28;20048;-69
2022/09/28 14:34:40;;;;;;;5.68;4.78;;;12.60;99.90;;;;;;5056145;28;20052;-68
2022/09/28 14:41:09;;;;;;;3.22;2.45;;;12.50;99.90;;;;;;5073470;28;20044;-68
2022/09/28 14:43:44;;;;;;;28.98;4.35;;;12.60;99.90;;;;;;4959801;28;20055;-67
2022/09/28 14:46:10;;;;;;;18.70;3.30;;;12.50;99.90;;;;;;4954670;28;20083;-69
2022/09/28 14:48:54;;;;;;;4.85;2.00;;;12.50;99.90;;;;;;5015208;28;20096;-69
2022/09/28 14:51:28;;;;;;;4.78;1.20;;;12.60;99.90;;;;;;5073542;28;20048;-69
2022/09/28 14:54:21;;;;;;;1.35;1.25;;;12.50;99.90;;;;;;5072425;28;20534;-68
2022/09/28 14:56:58;;;;;;;2.88;1.70;;;12.50;99.90;;;;;;5044611;28;20053;-70